createdAt,value
2023-03-06T00:01:01.161Z,0.82
2023-03-06T00:03:29.587Z,1.00
2023-03-06T00:05:59.650Z,0.80
2023-03-06T00:08:30.018Z,1.02
2023-03-06T00:10:59.028Z,0.70
2023-03-06T00:13:30.774Z,0.95
2023-03-06T00:16:03.969Z,1.00
2023-03-06T00:18:32.286Z,1.17
2023-03-06T00:21:00.813Z,0.90
2023-03-06T00:23:29.548Z,0.82
2023-03-06T00:25:57.779Z,0.98
2023-03-06T00:28:25.992Z,0.60
2023-03-06T00:30:54.332Z,0.70
2023-03-06T00:33:22.566Z,1.10
2023-03-06T00:35:51.130Z,1.00
2023-03-06T00:38:19.505Z,0.80
2023-03-06T00:40:47.780Z,0.90
2023-03-06T00:43:16.396Z,0.73
2023-03-06T00:45:44.652Z,0.77
2023-03-06T00:48:12.962Z,1.20
2023-03-06T00:50:41.160Z,0.93
2023-03-06T00:53:09.396Z,0.75
2023-03-06T00:55:37.906Z,0.80
2023-03-06T00:58:06.190Z,0.70
2023-03-06T01:00:34.463Z,1.00
2023-03-06T01:03:02.767Z,0.95
2023-03-06T01:05:35.427Z,0.73
2023-03-06T01:08:04.136Z,0.65
2023-03-06T01:10:33.148Z,0.82
2023-03-06T01:13:01.381Z,0.93
2023-03-06T01:15:29.648Z,1.00
2023-03-06T01:17:57.875Z,1.23
2023-03-06T01:20:26.274Z,0.73
2023-03-06T01:22:56.328Z,1.08
2023-03-06T01:25:26.769Z,1.23
2023-03-06T01:27:55.128Z,0.93
2023-03-06T01:30:23.492Z,0.82
2023-03-06T01:32:51.736Z,0.98
2023-03-06T01:35:20.254Z,0.80
2023-03-06T01:37:48.765Z,0.95
2023-03-06T01:40:16.982Z,0.80
2023-03-06T01:42:46.821Z,1.20
2023-03-06T01:45:15.086Z,1.10
2023-03-06T01:47:43.451Z,1.08
2023-03-06T01:50:13.628Z,1.27
2023-03-06T01:52:50.790Z,0.90
2023-03-06T01:55:27.005Z,1.20
2023-03-06T01:57:58.940Z,1.52
2023-03-06T02:00:29.543Z,1.30
2023-03-06T02:03:08.119Z,1.30
2023-03-06T02:05:37.544Z,1.27
2023-03-06T02:08:07.753Z,1.30
2023-03-06T02:10:36.295Z,1.50
2023-03-06T02:13:05.118Z,1.30
2023-03-06T02:15:33.441Z,1.27
2023-03-06T02:18:02.008Z,1.40
2023-03-06T02:20:40.655Z,1.63
2023-03-06T02:23:37.876Z,1.55
2023-03-06T02:26:07.898Z,1.73
2023-03-06T02:28:36.278Z,1.58
2023-03-06T02:31:04.670Z,1.30
2023-03-06T02:33:32.941Z,1.20
2023-03-06T02:36:06.748Z,1.60
2023-03-06T02:38:42.055Z,1.50
2023-03-06T02:41:10.965Z,1.55
2023-03-06T02:43:41.127Z,1.00
2023-03-06T02:46:09.393Z,1.10
2023-03-06T02:48:37.729Z,1.45
2023-03-06T02:51:06.032Z,1.42
2023-03-06T02:53:34.274Z,1.40
2023-03-06T02:56:02.552Z,1.10
2023-03-06T02:58:30.776Z,1.65
2023-03-06T03:00:59.067Z,1.27
2023-03-06T03:03:27.336Z,1.60
2023-03-06T03:05:55.617Z,1.25
2023-03-06T03:08:23.890Z,1.23
2023-03-06T03:10:52.173Z,1.50
2023-03-06T03:13:20.538Z,1.50
2023-03-06T03:16:05.951Z,1.85
2023-03-06T03:18:34.705Z,1.35
2023-03-06T03:21:03.311Z,1.67
2023-03-06T03:23:31.557Z,1.60
2023-03-06T03:26:11.350Z,2.63
2023-03-06T03:28:39.545Z,1.45
2023-03-06T03:31:10.052Z,3.25
2023-03-06T03:33:38.612Z,2.30
2023-03-06T03:36:08.705Z,2.28
2023-03-06T03:38:37.466Z,1.90
2023-03-06T03:41:06.414Z,1.70
2023-03-06T03:43:34.644Z,1.88
2023-03-06T03:46:03.176Z,1.80
2023-03-06T03:48:31.440Z,1.80
2023-03-06T03:51:10.213Z,2.00
2023-03-06T03:53:38.734Z,1.50
2023-03-06T03:56:07.326Z,1.60
2023-03-06T03:58:35.620Z,1.95
2023-03-06T04:01:03.826Z,1.40
2023-03-06T04:03:32.328Z,1.67
2023-03-06T04:06:01.002Z,1.63
2023-03-06T04:08:29.790Z,2.00
2023-03-06T04:10:58.153Z,2.22
2023-03-06T04:13:26.855Z,2.15
2023-03-06T04:15:56.635Z,1.75
2023-03-06T04:18:25.011Z,2.45
2023-03-06T04:20:53.311Z,1.75
2023-03-06T04:23:25.026Z,1.98
2023-03-06T04:25:53.401Z,2.10
2023-03-06T04:28:21.823Z,2.05
2023-03-06T04:30:50.256Z,1.88
2023-03-06T04:33:18.531Z,1.98
2023-03-06T04:35:46.783Z,2.45
2023-03-06T04:38:15.179Z,2.33
2023-03-06T04:40:44.943Z,2.70
2023-03-06T04:43:13.373Z,2.72
2023-03-06T04:45:41.624Z,2.65
2023-03-06T04:48:10.398Z,2.65
2023-03-06T04:50:39.018Z,2.67
2023-03-06T04:53:07.277Z,2.70
2023-03-06T04:55:35.636Z,4.32
2023-03-06T04:58:03.978Z,3.20
2023-03-06T05:00:32.491Z,2.65
2023-03-06T05:03:02.164Z,8.13
2023-03-06T05:05:31.057Z,4.30
2023-03-06T05:07:59.363Z,3.35
2023-03-06T05:10:27.816Z,3.00
2023-03-06T05:12:56.021Z,3.30
2023-03-06T05:15:24.322Z,3.35
2023-03-06T05:17:52.653Z,3.20
2023-03-06T05:20:21.096Z,2.85
2023-03-06T05:22:49.347Z,3.03
2023-03-06T05:25:17.682Z,3.10
2023-03-06T05:27:45.898Z,3.38
2023-03-06T05:30:15.721Z,2.90
2023-03-06T05:32:44.204Z,3.15
2023-03-06T05:35:19.967Z,3.55
2023-03-06T05:37:49.369Z,3.05
2023-03-06T05:40:19.168Z,3.45
2023-03-06T05:42:47.374Z,3.10
2023-03-06T05:45:15.628Z,3.03
2023-03-06T05:47:43.940Z,3.90
2023-03-06T05:50:14.778Z,3.22
2023-03-06T05:52:43.057Z,3.25
2023-03-06T05:55:13.481Z,3.10
2023-03-06T05:57:41.814Z,3.33
2023-03-06T06:00:11.018Z,3.08
2023-03-06T06:02:39.229Z,3.38
2023-03-06T06:05:08.055Z,2.85
2023-03-06T06:07:36.487Z,3.20
2023-03-06T06:10:06.503Z,2.80
2023-03-06T06:12:35.046Z,2.45
2023-03-06T06:15:03.316Z,2.80
2023-03-06T06:17:32.732Z,2.78
2023-03-06T06:20:01.028Z,2.63
2023-03-06T06:22:29.362Z,2.90
2023-03-06T06:24:57.679Z,3.22
2023-03-06T06:27:25.917Z,3.00
2023-03-06T06:29:54.221Z,3.42
2023-03-06T06:32:22.507Z,2.72
2023-03-06T06:34:51.063Z,2.70
2023-03-06T06:37:19.320Z,2.55
2023-03-06T06:39:47.552Z,2.30
2023-03-06T06:42:31.009Z,2.85
2023-03-06T06:45:02.464Z,2.75
2023-03-06T06:47:30.876Z,2.83
2023-03-06T06:49:59.196Z,2.85
2023-03-06T06:52:27.521Z,2.70
2023-03-06T06:54:55.844Z,3.10
2023-03-06T06:57:24.110Z,2.60
2023-03-06T06:59:53.911Z,2.63
2023-03-06T07:02:22.769Z,3.20
2023-03-06T07:05:03.181Z,2.85
2023-03-06T07:07:35.322Z,2.63
2023-03-06T07:10:06.468Z,2.70
2023-03-06T07:12:35.932Z,2.70
2023-03-06T07:15:06.085Z,3.42
2023-03-06T07:17:34.303Z,3.38
2023-03-06T07:20:02.546Z,3.40
2023-03-06T07:22:38.713Z,3.30
2023-03-06T07:25:17.229Z,3.15
2023-03-06T07:27:51.051Z,3.60
2023-03-06T07:30:22.256Z,3.30
2023-03-06T07:32:54.024Z,3.50
2023-03-06T07:35:22.550Z,3.55
2023-03-06T07:37:52.009Z,4.45
2023-03-06T07:40:21.390Z,3.60
2023-03-06T07:42:49.852Z,3.60
2023-03-06T07:45:18.266Z,3.60
2023-03-06T07:47:46.596Z,4.35
2023-03-06T07:50:15.012Z,3.60
2023-03-06T07:52:43.271Z,4.20
2023-03-06T07:55:12.858Z,3.42
2023-03-06T07:57:41.168Z,3.65
2023-03-06T08:00:14.220Z,3.60
2023-03-06T08:02:43.307Z,3.50
2023-03-06T08:05:16.101Z,3.58
2023-03-06T08:07:45.906Z,3.47
2023-03-06T08:10:15.963Z,4.30
2023-03-06T08:12:44.343Z,3.50
2023-03-06T08:15:13.513Z,4.03
2023-03-06T08:17:42.036Z,3.63
2023-03-06T08:20:11.559Z,3.53
2023-03-06T08:22:40.273Z,3.28
2023-03-06T08:25:09.207Z,3.00
2023-03-06T08:27:37.463Z,2.70
2023-03-06T08:30:06.396Z,2.70
2023-03-06T08:32:38.108Z,3.08
2023-03-06T08:35:07.091Z,2.47
2023-03-06T08:37:35.370Z,2.75
2023-03-06T08:40:05.466Z,2.95
2023-03-06T08:42:33.826Z,2.65
2023-03-06T08:45:02.009Z,2.22
2023-03-06T08:47:30.263Z,2.38
2023-03-06T08:50:00.585Z,2.22
2023-03-06T08:52:29.287Z,2.25
2023-03-06T08:54:58.841Z,2.72
2023-03-06T08:57:27.056Z,2.58
2023-03-06T08:59:55.274Z,2.70
2023-03-06T09:02:23.498Z,2.72
2023-03-06T09:04:51.981Z,2.78
2023-03-06T09:07:20.272Z,2.60
2023-03-06T09:09:48.506Z,2.67
2023-03-06T09:12:17.251Z,2.47
2023-03-06T09:14:45.458Z,2.47
2023-03-06T09:17:13.687Z,2.50
2023-03-06T09:19:41.893Z,2.47
2023-03-06T09:22:10.130Z,2.83
2023-03-06T09:24:38.336Z,2.30
2023-03-06T09:27:06.555Z,2.38
2023-03-06T09:29:34.754Z,2.45
2023-03-06T09:32:02.969Z,2.58
2023-03-06T09:34:31.305Z,1.95
2023-03-06T09:36:59.625Z,2.40
2023-03-06T09:39:28.256Z,2.97
2023-03-06T09:42:01.313Z,2.40
2023-03-06T09:44:32.519Z,2.30
2023-03-06T09:47:20.483Z,2.33
2023-03-06T09:50:22.247Z,2.40
2023-03-06T09:52:59.317Z,2.47
2023-03-06T09:55:31.917Z,2.10
2023-03-06T09:58:15.667Z,2.38
2023-03-06T10:00:48.355Z,2.30
2023-03-06T10:03:45.937Z,1.90
2023-03-06T10:06:49.811Z,2.40
2023-03-06T10:09:21.051Z,2.47
2023-03-06T10:12:04.586Z,2.28
2023-03-06T10:14:48.987Z,2.35
2023-03-06T10:17:21.441Z,1.80
2023-03-06T10:19:50.669Z,2.35
2023-03-06T10:22:33.801Z,1.83
2023-03-06T10:25:08.049Z,2.08
2023-03-06T10:27:43.612Z,1.90
2023-03-06T10:30:23.826Z,2.40
2023-03-06T10:32:59.586Z,1.98
2023-03-06T10:35:45.042Z,2.00
2023-03-06T10:38:27.882Z,1.75
2023-03-06T10:41:00.966Z,1.70
2023-03-06T10:43:29.163Z,1.48
2023-03-06T10:45:57.517Z,1.73
2023-03-06T10:48:29.204Z,1.60
2023-03-06T10:51:21.108Z,1.50
2023-03-06T10:53:59.963Z,1.38
2023-03-06T10:56:32.314Z,1.20
2023-03-06T10:59:30.181Z,1.30
2023-03-06T11:02:26.474Z,1.35
2023-03-06T11:04:57.154Z,1.00
2023-03-06T11:07:28.494Z,1.25
2023-03-06T11:09:59.428Z,1.20
2023-03-06T11:12:43.169Z,1.40
2023-03-06T11:15:24.414Z,1.27
2023-03-06T11:17:56.600Z,1.20
2023-03-06T11:20:50.074Z,1.00
2023-03-06T11:23:43.184Z,1.55
2023-03-06T11:26:17.251Z,1.20
2023-03-06T11:28:57.638Z,1.17
2023-03-06T11:31:30.482Z,1.30
2023-03-06T11:34:13.323Z,1.40
2023-03-06T11:36:52.930Z,1.23
2023-03-06T11:39:21.286Z,0.90
2023-03-06T11:42:12.176Z,1.42
2023-03-06T11:45:07.753Z,1.10
2023-03-06T11:47:51.175Z,0.77
2023-03-06T11:50:46.461Z,1.00
2023-03-06T11:53:20.665Z,1.13
2023-03-06T11:56:08.291Z,1.10
2023-03-06T11:59:11.393Z,1.10
2023-03-06T12:01:55.614Z,1.00
2023-03-06T12:04:35.953Z,0.90
2023-03-06T12:07:32.628Z,1.15
2023-03-06T12:10:28.772Z,1.00
2023-03-06T12:13:33.342Z,0.98
2023-03-06T12:16:37.173Z,1.10
2023-03-06T12:19:19.495Z,1.00
2023-03-06T12:22:09.192Z,1.27
2023-03-06T12:24:57.507Z,1.52
2023-03-06T12:27:57.027Z,1.38
2023-03-06T12:31:03.265Z,1.48
2023-03-06T12:34:06.517Z,1.38
2023-03-06T12:37:00.344Z,1.33
2023-03-06T12:39:34.155Z,1.50
2023-03-06T12:42:35.472Z,1.33
2023-03-06T12:45:24.998Z,1.35
2023-03-06T12:47:57.511Z,1.17
2023-03-06T12:50:25.684Z,1.00
2023-03-06T12:52:57.410Z,1.20
2023-03-06T12:55:26.953Z,1.40
2023-03-06T12:57:55.482Z,1.25
2023-03-06T13:00:36.035Z,1.42
2023-03-06T13:03:50.566Z,1.00
2023-03-06T13:06:55.018Z,1.08
2023-03-06T13:09:55.197Z,0.80
2023-03-06T13:12:26.129Z,1.10
2023-03-06T13:15:00.331Z,1.10
2023-03-06T13:17:35.626Z,1.10
2023-03-06T13:20:35.979Z,1.13
2023-03-06T13:23:41.504Z,1.00
2023-03-06T13:26:32.258Z,1.17
2023-03-06T13:29:00.618Z,0.88
2023-03-06T13:31:31.104Z,1.17
2023-03-06T13:34:02.269Z,0.88
2023-03-06T13:36:36.254Z,1.10
2023-03-06T13:39:09.372Z,1.20
2023-03-06T13:41:55.207Z,0.90
2023-03-06T13:44:26.151Z,1.08
2023-03-06T13:47:02.941Z,0.98
2023-03-06T13:49:31.902Z,1.40
2023-03-06T13:52:27.633Z,0.90
2023-03-06T13:55:15.694Z,0.80
2023-03-06T13:58:00.698Z,0.98
2023-03-06T14:01:03.252Z,0.95
2023-03-06T14:03:57.282Z,1.17
2023-03-06T14:06:38.206Z,1.00
2023-03-06T14:09:09.234Z,0.80
2023-03-06T14:11:38.875Z,1.23
2023-03-06T14:14:07.142Z,1.02
2023-03-06T14:16:49.939Z,1.05
2023-03-06T14:19:20.071Z,1.10
2023-03-06T14:21:56.768Z,0.90
2023-03-06T14:24:36.471Z,1.40
2023-03-06T14:27:05.259Z,1.17
2023-03-06T14:29:34.773Z,1.45
2023-03-06T14:32:03.616Z,1.40
2023-03-06T14:34:39.582Z,1.05
2023-03-06T14:37:19.878Z,1.33
2023-03-06T14:39:48.768Z,1.40
2023-03-06T14:42:21.753Z,1.38
2023-03-06T14:45:00.765Z,1.42
2023-03-06T14:47:32.240Z,1.10
2023-03-06T14:50:26.089Z,1.67
2023-03-06T14:53:15.186Z,1.40
2023-03-06T14:55:54.190Z,1.40
2023-03-06T14:58:27.402Z,1.67
2023-03-06T15:00:57.370Z,1.55
2023-03-06T15:03:46.565Z,1.58
2023-03-06T15:06:19.771Z,1.88
2023-03-06T15:08:52.230Z,1.70
2023-03-06T15:11:20.461Z,1.90
2023-03-06T15:14:02.518Z,1.80
2023-03-06T15:16:33.218Z,2.00
2023-03-06T15:19:06.001Z,2.05
2023-03-06T15:21:40.144Z,2.10
2023-03-06T15:24:31.903Z,2.30
2023-03-06T15:27:17.446Z,2.30
2023-03-06T15:29:45.911Z,2.53
2023-03-06T15:32:27.804Z,2.42
2023-03-06T15:35:33.127Z,2.17
2023-03-06T15:38:02.884Z,2.50
2023-03-06T15:40:32.772Z,2.03
2023-03-06T15:43:01.388Z,1.75
2023-03-06T15:45:30.972Z,1.70
2023-03-06T15:47:59.188Z,1.50
2023-03-06T15:50:29.743Z,1.65
2023-03-06T15:52:58.006Z,1.60
2023-03-06T15:55:27.229Z,1.90
2023-03-06T15:57:59.625Z,1.50
2023-03-06T16:00:36.400Z,1.70
2023-03-06T16:03:05.396Z,1.50
2023-03-06T16:05:33.700Z,1.27
2023-03-06T16:08:02.194Z,1.33
2023-03-06T16:10:32.792Z,1.58
2023-03-06T16:13:17.074Z,1.20
2023-03-06T16:15:51.204Z,1.55
2023-03-06T16:18:20.013Z,1.40
2023-03-06T16:20:48.722Z,1.50
2023-03-06T16:23:17.360Z,1.73
2023-03-06T16:25:49.488Z,1.25
2023-03-06T16:28:18.171Z,1.10
2023-03-06T16:30:47.028Z,1.60
2023-03-06T16:33:15.790Z,1.30
2023-03-06T16:35:47.238Z,1.67
2023-03-06T16:38:16.480Z,1.30
2023-03-06T16:40:45.048Z,1.33
2023-03-06T16:43:14.331Z,1.33
2023-03-06T16:45:43.356Z,1.48
2023-03-06T16:48:17.752Z,1.30
2023-03-06T16:50:46.282Z,1.33
2023-03-06T16:53:14.786Z,1.50
2023-03-06T16:55:43.083Z,1.30
2023-03-06T16:58:11.296Z,1.88
2023-03-06T17:00:39.679Z,1.58
2023-03-06T17:03:08.618Z,1.40
2023-03-06T17:05:39.711Z,1.50
2023-03-06T17:08:07.976Z,1.70
2023-03-06T17:10:36.274Z,1.50
2023-03-06T17:13:04.578Z,1.90
2023-03-06T17:15:32.921Z,1.73
2023-03-06T17:18:01.229Z,1.55
2023-03-06T17:20:29.475Z,1.50
2023-03-06T17:22:57.838Z,1.63
2023-03-06T17:25:26.236Z,1.42
2023-03-06T17:27:54.488Z,1.08
2023-03-06T17:30:22.799Z,1.20
2023-03-06T17:32:51.288Z,1.20
2023-03-06T17:35:19.633Z,1.60
2023-03-06T17:37:47.878Z,1.42
2023-03-06T17:40:16.513Z,1.58
2023-03-06T17:42:44.751Z,1.52
2023-03-06T17:45:13.633Z,1.70
2023-03-06T17:47:41.940Z,1.50
2023-03-06T17:50:11.082Z,1.75
2023-03-06T17:52:39.883Z,1.70
2023-03-06T17:55:08.701Z,1.40
2023-03-06T17:57:36.928Z,1.73
2023-03-06T18:00:06.724Z,1.52
2023-03-06T18:02:35.021Z,1.50
2023-03-06T18:05:03.596Z,1.60
2023-03-06T18:07:32.045Z,1.20
2023-03-06T18:10:00.298Z,1.30
2023-03-06T18:12:28.525Z,1.20
2023-03-06T18:14:58.032Z,1.23
2023-03-06T18:17:26.344Z,1.33
2023-03-06T18:19:54.689Z,1.20
2023-03-06T18:22:22.867Z,1.33
2023-03-06T18:24:51.507Z,1.50
2023-03-06T18:27:20.343Z,1.15
2023-03-06T18:29:49.194Z,1.20
2023-03-06T18:32:17.613Z,1.08
2023-03-06T18:34:45.944Z,1.20
2023-03-06T18:37:14.180Z,1.13
2023-03-06T18:39:42.502Z,1.00
2023-03-06T18:42:10.775Z,1.10
2023-03-06T18:44:38.981Z,1.15
2023-03-06T18:47:07.562Z,0.80
2023-03-06T18:49:35.824Z,1.10
2023-03-06T18:52:04.083Z,1.23
2023-03-06T18:54:32.377Z,1.10
2023-03-06T18:57:00.811Z,0.90
2023-03-06T18:59:29.040Z,1.23
2023-03-06T19:01:58.665Z,1.20
2023-03-06T19:04:27.954Z,0.82
2023-03-06T19:06:56.181Z,0.85
2023-03-06T19:09:24.496Z,0.90
2023-03-06T19:11:54.801Z,0.90
2023-03-06T19:14:23.223Z,0.90
2023-03-06T19:16:51.668Z,1.15
2023-03-06T19:19:19.944Z,0.73
2023-03-06T19:21:48.254Z,0.90
2023-03-06T19:24:16.761Z,1.10
2023-03-06T19:26:45.029Z,1.23
2023-03-06T19:29:13.371Z,1.00
2023-03-06T19:31:42.485Z,1.10
2023-03-06T19:34:10.763Z,1.10
2023-03-06T19:36:41.503Z,0.73
2023-03-06T19:39:10.392Z,0.70
2023-03-06T19:41:38.653Z,1.00
2023-03-06T19:44:06.986Z,0.90
2023-03-06T19:46:37.052Z,0.90
2023-03-06T19:49:12.998Z,0.93
2023-03-06T19:51:41.273Z,0.90
2023-03-06T19:54:14.407Z,1.00
2023-03-06T19:56:42.749Z,0.80
2023-03-06T19:59:11.349Z,0.95
2023-03-06T20:01:40.528Z,0.90
2023-03-06T20:04:08.973Z,0.65
2023-03-06T20:06:40.555Z,0.55
2023-03-06T20:09:10.324Z,0.60
2023-03-06T20:11:39.708Z,1.13
2023-03-06T20:14:09.766Z,1.00
2023-03-06T20:16:38.506Z,1.00
2023-03-06T20:19:07.786Z,0.75
2023-03-06T20:21:38.444Z,0.65
2023-03-06T20:24:08.997Z,0.95
2023-03-06T20:26:38.926Z,1.10
2023-03-06T20:29:07.186Z,0.70
2023-03-06T20:31:35.404Z,1.08
2023-03-06T20:34:04.506Z,0.75
2023-03-06T20:36:40.101Z,1.13
2023-03-06T20:39:12.607Z,1.27
2023-03-06T20:41:41.537Z,1.02
2023-03-06T20:44:13.509Z,1.00
2023-03-06T20:46:42.232Z,0.70
2023-03-06T20:49:11.917Z,0.70
2023-03-06T20:51:41.613Z,0.93
2023-03-06T20:54:13.828Z,0.85
2023-03-06T20:56:43.704Z,0.73
2023-03-06T20:59:15.812Z,0.82
2023-03-06T21:01:46.423Z,1.17
2023-03-06T21:04:16.171Z,0.47
2023-03-06T21:06:47.464Z,0.40
2023-03-06T21:09:17.875Z,0.77
2023-03-06T21:11:46.552Z,0.60
2023-03-06T21:14:15.196Z,0.70
2023-03-06T21:16:45.240Z,0.63
2023-03-06T21:19:13.767Z,0.80
2023-03-06T21:21:42.191Z,0.60
2023-03-06T21:24:11.248Z,0.77
2023-03-06T21:26:39.574Z,0.60
2023-03-06T21:29:09.125Z,0.50
2023-03-06T21:31:37.539Z,0.47
2023-03-06T21:34:07.115Z,0.65
2023-03-06T21:36:35.498Z,0.70
2023-03-06T21:39:06.969Z,0.60
2023-03-06T21:41:35.825Z,0.63
2023-03-06T21:44:06.657Z,0.70
2023-03-06T21:46:35.309Z,0.65
2023-03-06T21:49:05.497Z,0.77
2023-03-06T21:51:34.167Z,0.55
2023-03-06T21:54:03.852Z,0.50
2023-03-06T21:56:34.153Z,0.63
2023-03-06T21:59:02.546Z,0.40
2023-03-06T22:01:31.072Z,0.68
2023-03-06T22:04:00.703Z,0.55
2023-03-06T22:06:31.265Z,0.63
2023-03-06T22:09:00.984Z,0.70
2023-03-06T22:11:37.662Z,0.60
2023-03-06T22:14:07.066Z,0.68
2023-03-06T22:16:35.377Z,0.57
2023-03-06T22:19:03.606Z,0.70
2023-03-06T22:21:32.119Z,1.20
2023-03-06T22:24:01.157Z,0.60
2023-03-06T22:26:30.811Z,0.77
2023-03-06T22:28:59.018Z,0.88
2023-03-06T22:31:29.870Z,0.68
2023-03-06T22:34:00.523Z,0.50
2023-03-06T22:36:31.310Z,0.90
2023-03-06T22:39:01.953Z,0.77
2023-03-06T22:41:31.060Z,0.68
2023-03-06T22:44:01.497Z,0.63
2023-03-06T22:46:29.744Z,0.73
2023-03-06T22:49:01.784Z,0.70
2023-03-06T22:51:30.653Z,0.68
2023-03-06T22:53:59.352Z,0.90
2023-03-06T22:56:27.626Z,0.70
2023-03-06T22:58:55.958Z,0.60
2023-03-06T23:01:26.867Z,0.40
2023-03-06T23:03:57.879Z,0.75
2023-03-06T23:06:33.964Z,0.70
2023-03-06T23:09:19.104Z,0.80
2023-03-06T23:11:47.670Z,0.57
2023-03-06T23:14:17.964Z,0.63
2023-03-06T23:16:46.466Z,0.50
2023-03-06T23:19:16.310Z,0.40
2023-03-06T23:21:44.938Z,0.60
2023-03-06T23:24:13.288Z,0.50
2023-03-06T23:26:41.600Z,0.43
2023-03-06T23:29:09.811Z,0.47
2023-03-06T23:31:38.265Z,0.75
2023-03-06T23:34:06.938Z,0.60
2023-03-06T23:36:35.148Z,0.55
2023-03-06T23:39:03.407Z,0.88
2023-03-06T23:41:31.646Z,0.60
2023-03-06T23:44:00.178Z,0.52
2023-03-06T23:46:28.460Z,0.57
2023-03-06T23:48:56.719Z,0.40
2023-03-06T23:51:25.371Z,0.60
2023-03-06T23:53:59.173Z,0.40
2023-03-06T23:56:29.105Z,0.50
2023-03-06T23:58:57.404Z,0.57
